createdAt,value
2022-09-26T00:00:32.815Z,0.00
2022-09-26T00:01:32.888Z,0.00
2022-09-26T00:02:32.868Z,0.00
2022-09-26T00:03:32.772Z,0.00
2022-09-26T00:04:33.169Z,0.00
2022-09-26T00:05:32.769Z,0.00
2022-09-26T00:06:32.737Z,0.00
2022-09-26T00:07:32.765Z,0.00
2022-09-26T00:08:32.716Z,0.00
2022-09-26T00:09:32.718Z,0.00
2022-09-26T00:10:32.689Z,0.00
2022-09-26T00:11:32.695Z,0.00
2022-09-26T00:12:32.677Z,0.00
2022-09-26T00:13:32.693Z,0.00
2022-09-26T00:14:32.663Z,0.00
2022-09-26T00:15:32.655Z,0.00
2022-09-26T00:16:32.718Z,0.00
2022-09-26T00:17:32.638Z,0.00
2022-09-26T00:18:32.636Z,0.00
2022-09-26T00:19:32.646Z,0.00
2022-09-26T00:20:32.608Z,0.00
2022-09-26T00:21:32.590Z,0.00
2022-09-26T00:22:32.581Z,0.00
2022-09-26T00:23:32.563Z,0.00
2022-09-26T00:24:32.589Z,0.00
2022-09-26T00:25:32.536Z,0.00
2022-09-26T00:26:32.541Z,0.00
2022-09-26T00:27:32.577Z,0.00
2022-09-26T00:28:32.515Z,0.00
2022-09-26T00:29:32.514Z,0.00
2022-09-26T00:30:32.546Z,0.00
2022-09-26T00:31:32.485Z,0.00
2022-09-26T00:32:32.468Z,0.00
2022-09-26T00:33:32.455Z,0.00
2022-09-26T00:34:32.477Z,0.00
2022-09-26T00:35:32.449Z,0.00
2022-09-26T00:36:38.178Z,0.00
2022-09-26T00:37:32.420Z,0.00
2022-09-26T00:38:32.423Z,0.00
2022-09-26T00:39:32.425Z,0.00
2022-09-26T00:40:32.475Z,0.00
2022-09-26T00:41:32.370Z,0.00
2022-09-26T00:42:32.378Z,0.00
2022-09-26T00:43:32.366Z,0.00
2022-09-26T00:44:32.341Z,0.00
2022-09-26T00:45:32.401Z,0.00
2022-09-26T00:46:32.425Z,0.00
2022-09-26T00:47:32.306Z,0.00
2022-09-26T00:48:32.309Z,0.00
2022-09-26T00:49:32.307Z,0.00
2022-09-26T00:50:32.294Z,0.00
2022-09-26T00:51:32.292Z,0.00
2022-09-26T00:52:32.275Z,0.00
2022-09-26T00:53:32.254Z,0.00
2022-09-26T00:54:32.261Z,0.00
2022-09-26T00:55:32.225Z,0.00
2022-09-26T00:56:32.240Z,0.00
2022-09-26T00:57:32.231Z,0.00
2022-09-26T00:58:32.318Z,0.00
2022-09-26T00:59:32.195Z,0.00
2022-09-26T01:00:32.186Z,0.00
2022-09-26T01:01:32.384Z,0.00
2022-09-26T01:02:32.271Z,0.00
2022-09-26T01:03:32.133Z,0.00
2022-09-26T01:04:32.143Z,0.00
2022-09-26T01:05:32.129Z,0.00
2022-09-26T01:06:32.158Z,0.00
2022-09-26T01:07:32.106Z,0.00
2022-09-26T01:08:32.093Z,0.00
2022-09-26T01:09:32.113Z,0.00
2022-09-26T01:10:32.076Z,0.00
2022-09-26T01:11:32.066Z,0.00
2022-09-26T01:12:32.060Z,0.00
2022-09-26T01:13:32.060Z,0.00
2022-09-26T01:14:32.043Z,0.00
2022-09-26T01:15:32.017Z,0.00
2022-09-26T01:16:32.052Z,0.00
2022-09-26T01:17:32.012Z,0.00
2022-09-26T01:18:32.045Z,0.00
2022-09-26T01:19:31.972Z,0.00
2022-09-26T01:20:31.969Z,0.00
2022-09-26T01:21:31.959Z,0.00
2022-09-26T01:22:32.024Z,0.00
2022-09-26T01:23:31.950Z,0.00
2022-09-26T01:24:31.921Z,0.00
2022-09-26T01:25:31.904Z,0.00
2022-09-26T01:26:31.917Z,0.00
2022-09-26T01:27:31.892Z,0.00
2022-09-26T01:28:31.911Z,0.00
2022-09-26T01:29:31.875Z,0.00
2022-09-26T01:30:31.926Z,0.00
2022-09-26T01:31:31.847Z,0.00
2022-09-26T01:32:31.849Z,0.00
2022-09-26T01:33:31.824Z,0.00
2022-09-26T01:34:31.870Z,0.00
2022-09-26T01:35:31.813Z,0.00
2022-09-26T01:36:31.803Z,0.00
2022-09-26T01:37:31.780Z,0.00
2022-09-26T01:38:31.782Z,0.00
2022-09-26T01:39:31.762Z,0.00
2022-09-26T01:40:32.233Z,0.00
2022-09-26T01:41:31.736Z,0.00
2022-09-26T01:42:31.736Z,0.00
2022-09-26T01:43:31.749Z,0.00
2022-09-26T01:44:31.713Z,0.00
2022-09-26T01:45:31.774Z,0.00
2022-09-26T01:46:31.700Z,0.00
2022-09-26T01:47:31.679Z,0.00
2022-09-26T01:48:31.670Z,0.00
2022-09-26T01:49:31.659Z,0.00
2022-09-26T01:50:31.692Z,0.00
2022-09-26T01:51:31.670Z,0.00
2022-09-26T01:52:31.633Z,0.00
2022-09-26T01:53:31.614Z,0.00
2022-09-26T01:54:31.631Z,0.00
2022-09-26T01:55:31.615Z,0.00
2022-09-26T01:56:31.589Z,0.00
2022-09-26T01:57:31.583Z,0.00
2022-09-26T01:58:31.576Z,0.00
2022-09-26T01:59:31.597Z,0.00
2022-09-26T02:00:31.542Z,0.00
2022-09-26T02:01:31.711Z,0.00
2022-09-26T02:02:31.619Z,0.00
2022-09-26T02:03:31.513Z,0.00
2022-09-26T02:04:31.510Z,0.00
2022-09-26T02:05:31.496Z,0.00
2022-09-26T02:06:31.512Z,0.00
2022-09-26T02:07:31.553Z,0.00
2022-09-26T02:08:31.477Z,0.00
2022-09-26T02:09:31.453Z,0.00
2022-09-26T02:10:31.443Z,0.00
2022-09-26T02:11:31.441Z,0.00
2022-09-26T02:12:31.429Z,0.00
2022-09-26T02:13:31.414Z,0.00
2022-09-26T02:14:31.410Z,0.00
2022-09-26T02:15:31.390Z,0.00
2022-09-26T02:16:31.440Z,0.00
2022-09-26T02:17:31.465Z,0.00
2022-09-26T02:18:31.357Z,0.00
2022-09-26T02:19:31.340Z,0.00
2022-09-26T02:20:31.350Z,0.00
2022-09-26T02:21:31.479Z,0.00
2022-09-26T02:22:31.320Z,0.00
2022-09-26T02:23:31.297Z,0.00
2022-09-26T02:24:31.291Z,0.00
2022-09-26T02:25:31.275Z,0.00
2022-09-26T02:26:31.274Z,0.00
2022-09-26T02:27:31.287Z,0.00
2022-09-26T02:28:31.281Z,0.00
2022-09-26T02:29:31.234Z,0.00
2022-09-26T02:30:31.237Z,0.00
2022-09-26T02:31:31.353Z,0.00
2022-09-26T02:32:31.217Z,0.00
2022-09-26T02:33:31.207Z,0.00
2022-09-26T02:34:31.206Z,0.00
2022-09-26T02:35:31.179Z,0.00
2022-09-26T02:36:31.179Z,0.00
2022-09-26T02:37:31.152Z,0.00
2022-09-26T02:38:31.174Z,0.00
2022-09-26T02:39:31.129Z,0.00
2022-09-26T02:40:31.176Z,0.00
2022-09-26T02:41:31.110Z,0.00
2022-09-26T02:42:31.111Z,0.00
2022-09-26T02:43:31.115Z,0.00
2022-09-26T02:44:31.102Z,0.00
2022-09-26T02:45:31.126Z,0.00
2022-09-26T02:46:31.064Z,0.00
2022-09-26T02:47:31.053Z,0.00
2022-09-26T02:48:31.070Z,0.00
2022-09-26T02:49:31.032Z,0.00
2022-09-26T02:50:33.413Z,0.00
2022-09-26T02:51:31.014Z,0.00
2022-09-26T02:52:31.002Z,0.00
2022-09-26T02:53:31.005Z,0.00
2022-09-26T02:54:30.998Z,0.00
2022-09-26T02:55:31.047Z,0.00
2022-09-26T02:56:30.969Z,0.00
2022-09-26T02:57:30.939Z,0.00
2022-09-26T02:58:30.944Z,0.00
2022-09-26T02:59:31.006Z,0.00
2022-09-26T03:00:30.938Z,0.00
2022-09-26T03:01:31.007Z,0.00
2022-09-26T03:02:30.898Z,0.00
2022-09-26T03:03:30.967Z,0.00
2022-09-26T03:04:30.946Z,0.00
2022-09-26T03:05:30.894Z,0.00
2022-09-26T03:06:30.848Z,0.00
2022-09-26T03:07:30.835Z,0.00
2022-09-26T03:08:30.846Z,0.00
2022-09-26T03:09:30.821Z,0.00
2022-09-26T03:10:30.858Z,0.00
2022-09-26T03:11:30.794Z,0.00
2022-09-26T03:12:30.796Z,0.00
2022-09-26T03:13:30.772Z,0.00
2022-09-26T03:14:30.775Z,0.00
2022-09-26T03:15:38.688Z,0.00
2022-09-26T03:16:30.775Z,0.00
2022-09-26T03:17:30.742Z,0.00
2022-09-26T03:18:30.732Z,0.00
2022-09-26T03:19:30.706Z,0.00
2022-09-26T03:20:30.743Z,0.00
2022-09-26T03:21:34.884Z,0.00
2022-09-26T03:22:30.734Z,0.00
2022-09-26T03:23:30.667Z,0.00
2022-09-26T03:24:30.683Z,0.00
2022-09-26T03:25:30.667Z,0.00
2022-09-26T03:26:30.652Z,0.00
2022-09-26T03:27:30.623Z,0.00
2022-09-26T03:28:35.375Z,0.00
2022-09-26T03:29:30.648Z,0.00
2022-09-26T03:30:30.620Z,0.00
2022-09-26T03:31:30.630Z,0.00
2022-09-26T03:32:30.601Z,0.00
2022-09-26T03:33:30.606Z,0.00
2022-09-26T03:34:30.589Z,0.00
2022-09-26T03:35:30.566Z,0.00
2022-09-26T03:36:30.536Z,0.00
2022-09-26T03:37:30.538Z,0.00
2022-09-26T03:38:30.517Z,0.00
2022-09-26T03:39:30.573Z,0.00
2022-09-26T03:40:30.560Z,0.00
2022-09-26T03:41:30.485Z,0.00
2022-09-26T03:42:30.479Z,0.00
2022-09-26T03:43:30.464Z,0.00
2022-09-26T03:44:30.462Z,0.00
2022-09-26T03:45:30.514Z,0.00
2022-09-26T03:46:30.426Z,0.00
2022-09-26T03:47:30.456Z,0.00
2022-09-26T03:48:30.432Z,0.00
2022-09-26T03:49:30.412Z,0.00
2022-09-26T03:50:30.386Z,0.00
2022-09-26T03:51:30.383Z,0.00
2022-09-26T03:52:32.558Z,0.00
2022-09-26T03:53:30.376Z,0.00
2022-09-26T03:54:30.352Z,0.00
2022-09-26T03:55:30.326Z,0.00
2022-09-26T03:56:30.333Z,0.00
2022-09-26T03:57:30.338Z,0.00
2022-09-26T03:58:30.330Z,0.00
2022-09-26T03:59:30.292Z,0.00
2022-09-26T04:00:30.291Z,0.00
2022-09-26T04:01:30.351Z,0.00
2022-09-26T04:02:30.381Z,0.00
2022-09-26T04:03:30.263Z,0.00
2022-09-26T04:04:30.273Z,0.00
2022-09-26T04:05:30.261Z,0.00
2022-09-26T04:06:30.227Z,0.00
2022-09-26T04:07:30.221Z,0.00
2022-09-26T04:08:30.240Z,0.00
2022-09-26T04:09:30.185Z,0.00
2022-09-26T04:10:30.193Z,0.00
2022-09-26T04:11:30.159Z,0.00
2022-09-26T04:12:30.200Z,0.00
2022-09-26T04:14:30.169Z,0.00
2022-09-26T04:15:30.158Z,0.00
2022-09-26T04:16:30.177Z,0.00
2022-09-26T04:17:30.104Z,0.00
2022-09-26T04:18:30.129Z,0.00
2022-09-26T04:19:30.152Z,0.00
2022-09-26T04:20:30.098Z,0.00
2022-09-26T04:21:30.115Z,0.00
2022-09-26T04:22:30.052Z,0.00
2022-09-26T04:23:30.040Z,0.00
2022-09-26T04:24:30.053Z,0.00
2022-09-26T04:25:30.067Z,0.00
2022-09-26T04:26:30.055Z,0.00
2022-09-26T04:27:30.000Z,0.00
2022-09-26T04:28:29.999Z,0.00
2022-09-26T04:29:29.988Z,0.00
2022-09-26T04:30:29.976Z,0.00
2022-09-26T04:31:30.005Z,0.00
2022-09-26T04:32:29.965Z,0.00
2022-09-26T04:33:29.956Z,0.00
2022-09-26T04:34:29.928Z,0.00
2022-09-26T04:35:29.921Z,0.00
2022-09-26T04:36:29.932Z,0.00
2022-09-26T04:37:29.898Z,0.00
2022-09-26T04:38:29.877Z,0.00
2022-09-26T04:39:29.870Z,0.00
2022-09-26T04:40:29.885Z,0.00
2022-09-26T04:41:29.883Z,0.00
2022-09-26T04:42:29.841Z,0.00
2022-09-26T04:43:29.847Z,0.00
2022-09-26T04:44:29.850Z,0.00
2022-09-26T04:45:29.863Z,0.00
2022-09-26T04:46:31.150Z,0.00
2022-09-26T04:47:29.789Z,0.00
2022-09-26T04:48:29.782Z,0.00
2022-09-26T04:49:29.793Z,0.00
2022-09-26T04:50:29.749Z,0.00
2022-09-26T04:51:29.768Z,0.00
2022-09-26T04:52:29.753Z,0.00
2022-09-26T04:53:29.736Z,0.00
2022-09-26T04:54:29.730Z,0.00
2022-09-26T04:55:29.708Z,0.00
2022-09-26T04:56:29.653Z,1.00
2022-09-26T04:57:29.718Z,0.00
2022-09-26T04:58:29.688Z,0.00
2022-09-26T04:59:29.676Z,0.00
2022-09-26T05:00:29.621Z,2.00
2022-09-26T05:01:29.691Z,1.00
2022-09-26T05:02:30.536Z,1.00
2022-09-26T05:03:29.590Z,2.00
2022-09-26T05:04:29.564Z,1.00
2022-09-26T05:05:29.559Z,1.00
2022-09-26T05:06:29.528Z,1.00
2022-09-26T05:07:29.533Z,3.00
2022-09-26T05:08:29.528Z,5.00
2022-09-26T05:09:34.166Z,6.00
2022-09-26T05:10:29.502Z,7.00
2022-09-26T05:11:29.484Z,6.00
2022-09-26T05:12:29.479Z,7.00
2022-09-26T05:13:29.470Z,10.00
2022-09-26T05:14:29.445Z,11.00
2022-09-26T05:15:29.708Z,14.00
2022-09-26T05:16:29.481Z,20.00
2022-09-26T05:17:29.429Z,20.00
2022-09-26T05:18:29.410Z,26.00
2022-09-26T05:19:29.401Z,25.00
2022-09-26T05:20:29.402Z,28.00
2022-09-26T05:21:29.414Z,30.00
2022-09-26T05:22:29.395Z,35.00
2022-09-26T05:23:29.373Z,41.00
2022-09-26T05:24:29.344Z,44.00
2022-09-26T05:25:29.347Z,50.00
2022-09-26T05:26:31.202Z,58.00
2022-09-26T05:27:29.327Z,63.00
2022-09-26T05:28:29.305Z,74.00
2022-09-26T05:29:29.310Z,80.00
2022-09-26T05:30:29.331Z,87.00
2022-09-26T05:31:29.467Z,93.00
2022-09-26T05:32:29.328Z,95.00
2022-09-26T05:33:29.291Z,99.00
2022-09-26T05:34:29.245Z,103.00
2022-09-26T05:35:29.248Z,110.00
2022-09-26T05:36:29.249Z,117.00
2022-09-26T05:37:29.274Z,129.00
2022-09-26T05:38:29.201Z,136.00
2022-09-26T05:39:29.293Z,147.00
2022-09-26T05:40:29.223Z,158.00
2022-09-26T05:41:29.202Z,177.00
2022-09-26T05:42:29.188Z,188.00
2022-09-26T05:43:29.145Z,198.00
2022-09-26T05:44:29.758Z,210.00
2022-09-26T05:45:29.149Z,217.00
2022-09-26T05:46:29.155Z,226.00
2022-09-26T05:47:29.103Z,239.00
2022-09-26T05:48:29.095Z,245.00
2022-09-26T05:49:29.101Z,261.00
2022-09-26T05:50:29.070Z,285.00
2022-09-26T05:51:29.098Z,303.00
2022-09-26T05:52:29.049Z,321.00
2022-09-26T05:53:29.052Z,330.00
2022-09-26T05:54:29.038Z,343.00
2022-09-26T05:55:29.037Z,351.00
2022-09-26T05:56:29.029Z,353.00
2022-09-26T05:57:29.037Z,360.00
2022-09-26T05:58:28.996Z,367.00
2022-09-26T05:59:28.981Z,377.00
2022-09-26T06:00:29.024Z,391.00
2022-09-26T06:01:29.068Z,399.00
2022-09-26T06:02:29.029Z,405.00
2022-09-26T06:03:28.945Z,409.00
2022-09-26T06:04:28.934Z,408.00
2022-09-26T06:05:28.944Z,420.00
2022-09-26T06:06:28.899Z,425.00
2022-09-26T06:07:28.920Z,424.00
2022-09-26T06:08:28.888Z,429.00
2022-09-26T06:09:28.883Z,429.00
2022-09-26T06:10:28.943Z,414.00
2022-09-26T06:11:28.865Z,395.00
2022-09-26T06:12:28.864Z,383.00
2022-09-26T06:13:28.844Z,380.00
2022-09-26T06:14:28.827Z,383.00
2022-09-26T06:15:28.817Z,392.00
2022-09-26T06:16:28.949Z,420.00
2022-09-26T06:17:28.812Z,451.00
2022-09-26T06:18:28.788Z,481.00
2022-09-26T06:19:28.782Z,502.00
2022-09-26T06:20:28.806Z,516.00
2022-09-26T06:21:28.765Z,541.00
2022-09-26T06:22:28.787Z,552.00
2022-09-26T06:23:28.736Z,561.00
2022-09-26T06:24:28.715Z,581.00
2022-09-26T06:25:28.774Z,587.00
2022-09-26T06:26:28.712Z,557.00
2022-09-26T06:27:28.731Z,527.00
2022-09-26T06:28:28.724Z,495.00
2022-09-26T06:29:28.688Z,459.00
2022-09-26T06:30:28.738Z,450.00
2022-09-26T06:31:28.760Z,448.00
2022-09-26T06:32:28.634Z,501.00
2022-09-26T06:33:33.161Z,568.00
2022-09-26T06:34:28.616Z,645.00
2022-09-26T06:35:28.606Z,762.00
2022-09-26T06:36:28.592Z,806.00
2022-09-26T06:37:28.592Z,861.00
2022-09-26T06:38:28.567Z,908.00
2022-09-26T06:39:28.608Z,940.00
2022-09-26T06:40:28.780Z,945.00
2022-09-26T06:41:28.552Z,931.00
2022-09-26T06:42:28.618Z,886.00
2022-09-26T06:43:28.527Z,837.00
2022-09-26T06:44:28.525Z,842.00
2022-09-26T06:45:28.528Z,847.00
2022-09-26T06:46:28.569Z,815.00
2022-09-26T06:47:28.484Z,804.00
2022-09-26T06:48:28.466Z,815.00
2022-09-26T06:49:28.489Z,799.00
2022-09-26T06:50:28.441Z,800.00
2022-09-26T06:51:28.450Z,818.00
2022-09-26T06:52:28.420Z,815.00
2022-09-26T06:53:28.417Z,816.00
2022-09-26T06:54:28.417Z,810.00
2022-09-26T06:55:28.455Z,818.00
2022-09-26T06:56:28.383Z,794.00
2022-09-26T06:57:28.394Z,805.00
2022-09-26T06:58:28.368Z,883.00
2022-09-26T06:59:28.377Z,953.00
2022-09-26T07:00:28.365Z,1000.00
2022-09-26T07:01:28.451Z,1022.00
2022-09-26T07:02:28.440Z,1036.00
2022-09-26T07:03:28.309Z,1053.00
2022-09-26T07:04:28.306Z,1079.00
2022-09-26T07:05:28.294Z,1115.00
2022-09-26T07:06:28.279Z,1135.00
2022-09-26T07:07:28.281Z,1151.00
2022-09-26T07:08:57.382Z,1150.00
2022-09-26T07:09:28.254Z,1162.00
2022-09-26T07:10:28.244Z,1155.00
2022-09-26T07:11:38.384Z,1163.00
2022-09-26T07:12:28.222Z,1159.00
2022-09-26T07:13:28.252Z,1168.00
2022-09-26T07:14:28.190Z,1168.00
2022-09-26T07:15:28.188Z,1171.00
2022-09-26T07:16:28.233Z,1176.00
2022-09-26T07:17:28.200Z,1176.00
2022-09-26T07:18:28.149Z,1178.00
2022-09-26T07:19:28.150Z,1187.00
2022-09-26T07:20:30.732Z,1190.00
2022-09-26T07:21:28.141Z,1203.00
2022-09-26T07:22:28.100Z,1218.00
2022-09-26T07:23:28.123Z,1217.00
2022-09-26T07:24:28.093Z,1217.00
2022-09-26T07:25:28.085Z,1222.00
2022-09-26T07:26:28.067Z,1217.00
2022-09-26T07:27:28.063Z,1184.00
2022-09-26T07:28:28.059Z,1154.00
2022-09-26T07:29:28.089Z,1139.00
2022-09-26T07:30:28.027Z,1183.00
2022-09-26T07:31:28.808Z,1172.00
2022-09-26T07:32:27.996Z,1146.00
2022-09-26T07:33:28.001Z,1146.00
2022-09-26T07:34:28.013Z,1120.00
2022-09-26T07:35:27.969Z,1130.00
2022-09-26T07:36:27.965Z,1124.00
2022-09-26T07:37:27.964Z,1127.00
2022-09-26T07:38:27.938Z,1123.00
2022-09-26T07:39:27.940Z,1097.00
2022-09-26T07:40:27.990Z,1033.00
2022-09-26T07:41:27.919Z,969.00
2022-09-26T07:42:27.897Z,926.00
2022-09-26T07:43:53.617Z,848.00
2022-09-26T07:45:16.398Z,795.00
2022-09-26T07:45:29.916Z,770.00
2022-09-26T07:46:27.899Z,697.00
2022-09-26T07:47:27.846Z,678.00
2022-09-26T07:48:27.869Z,754.00
2022-09-26T07:49:27.831Z,757.00
2022-09-26T07:50:27.806Z,760.00
2022-09-26T07:51:27.832Z,791.00
2022-09-26T07:52:27.798Z,839.00
2022-09-26T07:53:27.805Z,902.00
2022-09-26T07:54:27.782Z,970.00
2022-09-26T07:55:27.803Z,1033.00
2022-09-26T07:56:27.776Z,1064.00
2022-09-26T07:57:27.770Z,1100.00
2022-09-26T07:58:27.720Z,1117.00
2022-09-26T07:59:27.738Z,1090.00
2022-09-26T08:00:27.719Z,1095.00
2022-09-26T08:01:27.801Z,1089.00
2022-09-26T08:02:27.754Z,1101.00
2022-09-26T08:03:27.697Z,1138.00
2022-09-26T08:04:27.670Z,1178.00
2022-09-26T08:05:27.681Z,1201.00
2022-09-26T08:06:27.661Z,1151.00
2022-09-26T08:07:27.657Z,1118.00
2022-09-26T08:08:27.664Z,1154.00
2022-09-26T08:09:27.625Z,1194.00
2022-09-26T08:10:27.614Z,1241.00
2022-09-26T08:11:27.617Z,1263.00
2022-09-26T08:12:27.593Z,1280.00
2022-09-26T08:13:27.586Z,1309.00
2022-09-26T08:14:27.560Z,1356.00
2022-09-26T08:15:27.588Z,1450.00
2022-09-26T08:16:27.702Z,1586.00
2022-09-26T08:17:27.545Z,1765.00
2022-09-26T08:18:27.526Z,1923.00
2022-09-26T08:19:27.515Z,2115.00
2022-09-26T08:20:32.040Z,2312.00
2022-09-26T08:21:27.516Z,2485.00
2022-09-26T08:22:27.509Z,2631.00
2022-09-26T08:23:27.479Z,2741.00
2022-09-26T08:24:27.520Z,2874.00
2022-09-26T08:25:27.453Z,3020.00
2022-09-26T08:26:27.448Z,3025.00
2022-09-26T08:27:27.432Z,2953.00
2022-09-26T08:28:27.449Z,2965.00
2022-09-26T08:29:27.428Z,2809.00
2022-09-26T08:30:27.391Z,2261.00
2022-09-26T08:31:27.460Z,1740.00
2022-09-26T08:32:27.397Z,1459.00
2022-09-26T08:33:27.384Z,1274.00
2022-09-26T08:34:27.374Z,1187.00
2022-09-26T08:35:27.349Z,1140.00
2022-09-26T08:36:27.341Z,1044.00
2022-09-26T08:37:27.369Z,954.00
2022-09-26T08:38:27.313Z,969.00
2022-09-26T08:39:32.508Z,1047.00
2022-09-26T08:40:27.353Z,1089.00
2022-09-26T08:41:27.293Z,1264.00
2022-09-26T08:42:27.273Z,1278.00
2022-09-26T08:43:27.286Z,1473.00
2022-09-26T08:44:27.259Z,1605.00
2022-09-26T08:45:28.268Z,1844.00
2022-09-26T08:46:27.289Z,2159.00
2022-09-26T08:47:27.241Z,1978.00
2022-09-26T08:48:27.220Z,1931.00
2022-09-26T08:49:27.200Z,1948.00
2022-09-26T08:50:27.204Z,2199.00
2022-09-26T08:51:29.325Z,2320.00
2022-09-26T08:52:27.179Z,2496.00
2022-09-26T08:53:27.150Z,2712.00
2022-09-26T08:54:27.195Z,2744.00
2022-09-26T08:55:27.135Z,2310.00
2022-09-26T08:56:27.147Z,2464.00
2022-09-26T08:57:27.132Z,2158.00
2022-09-26T08:58:29.203Z,1736.00
2022-09-26T08:59:27.106Z,1303.00
2022-09-26T09:00:27.086Z,1124.00
2022-09-26T09:01:27.335Z,1113.00
2022-09-26T09:02:27.244Z,862.00
2022-09-26T09:03:27.048Z,942.00
2022-09-26T09:04:27.086Z,973.00
2022-09-26T09:05:27.044Z,794.00
2022-09-26T09:06:27.049Z,825.00
2022-09-26T09:07:27.019Z,1185.00
2022-09-26T09:08:27.006Z,1184.00
2022-09-26T09:09:26.983Z,1462.00
2022-09-26T09:10:27.007Z,1651.00
2022-09-26T09:11:26.990Z,1901.00
2022-09-26T09:12:31.358Z,1848.00
2022-09-26T09:13:26.952Z,2013.00
2022-09-26T09:14:26.946Z,1741.00
2022-09-26T09:15:26.955Z,1216.00
2022-09-26T09:16:27.032Z,1047.00
2022-09-26T09:17:26.918Z,1464.00
2022-09-26T09:18:26.923Z,1720.00
2022-09-26T09:19:26.890Z,1979.00
2022-09-26T09:20:26.928Z,1913.00
2022-09-26T09:21:26.870Z,1550.00
2022-09-26T09:22:27.102Z,1102.00
2022-09-26T09:23:26.854Z,1163.00
2022-09-26T09:24:30.039Z,1150.00
2022-09-26T09:25:26.853Z,746.00
2022-09-26T09:28:26.823Z,1437.00
2022-09-26T09:29:26.801Z,1440.00
2022-09-26T09:30:26.800Z,1366.00
2022-09-26T09:31:26.870Z,1613.00
2022-09-26T09:32:26.754Z,1927.00
2022-09-26T09:33:26.762Z,2004.00
2022-09-26T09:34:26.744Z,2120.00
2022-09-26T09:35:26.723Z,1929.00
2022-09-26T09:36:26.733Z,2113.00
2022-09-26T09:37:26.693Z,2176.00
2022-09-26T09:38:26.733Z,2357.00
2022-09-26T09:39:26.691Z,2406.00
2022-09-26T09:40:26.736Z,2694.00
2022-09-26T09:41:26.651Z,2844.00
2022-09-26T09:42:26.666Z,2844.00
2022-09-26T09:43:26.643Z,2479.00
2022-09-26T09:44:26.651Z,2186.00
2022-09-26T09:45:26.639Z,1886.00
2022-09-26T09:46:26.690Z,2525.00
2022-09-26T09:47:26.600Z,2002.00
2022-09-26T09:48:26.600Z,2093.00
2022-09-26T09:49:26.600Z,2084.00
2022-09-26T09:50:26.576Z,2175.00
2022-09-26T09:51:26.548Z,2054.00
2022-09-26T09:52:26.553Z,1867.00
2022-09-26T09:53:26.533Z,2432.00
2022-09-26T09:54:26.543Z,1663.00
2022-09-26T09:55:26.523Z,1863.00
2022-09-26T09:56:26.528Z,2248.00
2022-09-26T09:57:26.500Z,2554.00
2022-09-26T09:58:26.497Z,2059.00
2022-09-26T09:59:26.539Z,2323.00
2022-09-26T10:00:26.471Z,2381.00
2022-09-26T10:01:26.454Z,2197.00
2022-09-26T10:02:26.498Z,2399.00
2022-09-26T10:03:26.433Z,2075.00
2022-09-26T10:04:26.433Z,2394.00
2022-09-26T10:05:26.422Z,2286.00
2022-09-26T10:06:45.916Z,2307.00
2022-09-26T10:07:26.803Z,2262.00
2022-09-26T10:08:26.383Z,2342.00
2022-09-26T10:09:36.067Z,2343.00
2022-09-26T10:10:26.377Z,2406.00
2022-09-26T10:11:26.369Z,2363.00
2022-09-26T10:12:26.373Z,2267.00
2022-09-26T10:13:26.361Z,2291.00
2022-09-26T10:14:26.331Z,2060.00
2022-09-26T10:15:26.460Z,2132.00
2022-09-26T10:16:26.415Z,2191.00
2022-09-26T10:17:26.282Z,1877.00
2022-09-26T10:18:27.190Z,1980.00
2022-09-26T10:19:26.282Z,2234.00
2022-09-26T10:20:26.260Z,1887.00
2022-09-26T10:21:26.272Z,1304.00
2022-09-26T10:22:26.399Z,1877.00
2022-09-26T10:23:26.252Z,1651.00
2022-09-26T10:24:26.218Z,961.00
2022-09-26T10:25:26.228Z,750.00
2022-09-26T10:26:31.177Z,571.00
2022-09-26T10:27:26.201Z,1111.00
2022-09-26T10:28:26.188Z,1440.00
2022-09-26T10:29:26.185Z,1259.00
2022-09-26T10:30:26.225Z,438.00
2022-09-26T10:31:26.288Z,1656.00
2022-09-26T10:32:26.162Z,1237.00
2022-09-26T10:33:26.123Z,1123.00
2022-09-26T10:34:26.124Z,1041.00
2022-09-26T10:35:26.103Z,1191.00
2022-09-26T10:36:26.109Z,1253.00
2022-09-26T10:37:26.370Z,898.00
2022-09-26T10:38:26.073Z,1172.00
2022-09-26T10:39:26.060Z,1046.00
2022-09-26T10:40:26.084Z,1061.00
2022-09-26T10:41:26.043Z,1061.00
2022-09-26T10:42:31.408Z,1194.00
2022-09-26T10:43:26.045Z,1272.00
2022-09-26T10:44:26.015Z,1290.00
2022-09-26T10:45:26.010Z,1081.00
2022-09-26T10:46:26.074Z,1830.00
2022-09-26T10:47:25.986Z,1705.00
2022-09-26T10:48:25.993Z,1586.00
2022-09-26T10:49:25.956Z,1626.00
2022-09-26T10:50:25.955Z,1658.00
2022-09-26T10:51:25.935Z,1615.00
2022-09-26T10:52:25.931Z,1925.00
2022-09-26T10:53:25.961Z,1372.00
2022-09-26T10:54:25.926Z,1380.00
2022-09-26T10:55:25.898Z,1357.00
2022-09-26T10:56:25.891Z,932.00
2022-09-26T10:57:25.881Z,1003.00
2022-09-26T10:58:25.884Z,1795.00
2022-09-26T10:59:25.888Z,1522.00
2022-09-26T11:00:25.835Z,1765.00
2022-09-26T11:01:25.886Z,1475.00
2022-09-26T11:02:25.829Z,1467.00
2022-09-26T11:03:25.878Z,1464.00
2022-09-26T11:04:25.833Z,1204.00
2022-09-26T11:05:25.797Z,1635.00
2022-09-26T11:06:25.784Z,1311.00
2022-09-26T11:07:25.789Z,1122.00
2022-09-26T11:08:25.758Z,988.00
2022-09-26T11:09:27.291Z,1880.00
2022-09-26T11:10:25.756Z,1877.00
2022-09-26T11:11:25.728Z,1609.00
2022-09-26T11:12:25.754Z,1273.00
2022-09-26T11:13:25.710Z,1224.00
2022-09-26T11:14:28.301Z,1258.00
2022-09-26T11:15:25.705Z,1873.00
2022-09-26T11:16:25.763Z,1859.00
2022-09-26T11:17:25.655Z,1993.00
2022-09-26T11:18:25.664Z,1729.00
2022-09-26T11:19:25.656Z,1628.00
2022-09-26T11:20:25.663Z,1969.00
2022-09-26T11:21:29.156Z,1789.00
2022-09-26T11:22:28.278Z,1243.00
2022-09-26T11:23:25.610Z,1570.00
2022-09-26T11:24:25.613Z,1852.00
2022-09-26T11:25:25.603Z,2188.00
2022-09-26T11:26:25.593Z,4316.00
2022-09-26T11:27:25.564Z,4030.00
2022-09-26T11:28:25.561Z,3634.00
2022-09-26T11:29:25.561Z,3516.00
2022-09-26T11:30:25.569Z,3228.00
2022-09-26T11:31:25.556Z,2835.00
2022-09-26T11:32:25.511Z,3202.00
2022-09-26T11:33:25.492Z,3070.00
2022-09-26T11:34:25.520Z,2626.00
2022-09-26T11:35:25.507Z,2733.00
2022-09-26T11:36:25.501Z,3884.00
2022-09-26T11:37:25.461Z,2917.00
2022-09-26T11:38:25.489Z,2822.00
2022-09-26T11:39:25.442Z,2512.00
2022-09-26T11:40:25.485Z,2417.00
2022-09-26T11:41:25.460Z,2788.00
2022-09-26T11:42:25.418Z,1584.00
2022-09-26T11:43:25.400Z,1210.00
2022-09-26T11:44:25.398Z,1467.00
2022-09-26T11:45:25.394Z,1204.00
2022-09-26T11:46:25.469Z,1974.00
2022-09-26T11:47:25.356Z,1713.00
2022-09-26T11:48:25.352Z,2011.00
2022-09-26T11:49:25.332Z,1518.00
2022-09-26T11:50:25.349Z,2640.00
2022-09-26T11:51:25.309Z,2195.00
2022-09-26T11:52:25.308Z,3401.00
2022-09-26T11:53:25.292Z,2878.00
2022-09-26T11:54:25.428Z,3211.00
2022-09-26T11:55:25.292Z,2747.00
2022-09-26T11:56:25.287Z,2650.00
2022-09-26T11:57:25.253Z,2947.00
2022-09-26T11:58:25.262Z,2658.00
2022-09-26T11:59:25.229Z,2512.00
2022-09-26T12:00:25.604Z,3182.00
2022-09-26T12:01:25.205Z,2740.00
2022-09-26T12:02:25.339Z,2102.00
2022-09-26T12:03:25.339Z,1781.00
2022-09-26T12:04:25.207Z,3156.00
2022-09-26T12:05:27.160Z,2925.00
2022-09-26T12:06:25.199Z,2362.00
2022-09-26T12:07:25.170Z,1937.00
2022-09-26T12:08:25.132Z,2091.00
2022-09-26T12:09:25.122Z,1853.00
2022-09-26T12:10:25.148Z,2747.00
2022-09-26T12:11:25.102Z,1213.00
2022-09-26T12:12:25.098Z,1448.00
2022-09-26T12:13:25.078Z,2364.00
2022-09-26T12:14:25.079Z,2288.00
2022-09-26T12:15:25.089Z,1886.00
2022-09-26T12:16:25.854Z,1788.00
2022-09-26T12:17:31.773Z,2038.00
2022-09-26T12:18:25.037Z,1938.00
2022-09-26T12:19:25.022Z,1755.00
2022-09-26T12:20:25.009Z,1407.00
2022-09-26T12:21:25.010Z,1475.00
2022-09-26T12:22:25.028Z,1120.00
2022-09-26T12:23:24.999Z,1100.00
2022-09-26T12:24:24.965Z,912.00
2022-09-26T12:25:24.994Z,911.00
2022-09-26T12:26:26.885Z,848.00
2022-09-26T12:27:24.932Z,792.00
2022-09-26T12:28:24.951Z,622.00
2022-09-26T12:29:24.906Z,876.00
2022-09-26T12:30:24.896Z,1240.00
2022-09-26T12:31:25.004Z,1207.00
2022-09-26T12:32:24.880Z,1488.00
2022-09-26T12:33:24.868Z,1536.00
2022-09-26T12:34:24.883Z,2059.00
2022-09-26T12:35:24.839Z,1520.00
2022-09-26T12:36:24.877Z,1892.00
2022-09-26T12:37:24.840Z,1746.00
2022-09-26T12:38:24.823Z,2155.00
2022-09-26T12:39:24.797Z,2358.00
2022-09-26T12:40:24.882Z,1950.00
2022-09-26T12:41:24.779Z,1747.00
2022-09-26T12:42:24.781Z,1727.00